Portada
METAR-TAF:

METAR-TAF

Aeroports :

Khon Kaen, Tailàndia

latitud: 16-26N, longitud: 102-50E, altitud: 165 m

Observació

L'informe es va fer fa 18 minuts, a les 14:00 UTC
Vent 5 kt del Est, variant entre Nord-Est i Est/Sud-Est
Temperatura 29°C
Humitat 66%
Pressió 1009 hPa
Visibilitat: 8000 m
Escasses núvols a una alçada de 3000 ft

METAR: VTUK 071400Z 08005KT 050V110 8000 FEW030 29/22 Q1009 NOSIG

Hora: 21:18 (14:18 UTC)

Pronòstic

L'informe es va fer fa 3 hores i 18 minuts, a les 11:00 UTC
Pronòstic vàlid del 07 a les 12 UTC al 08 a les 12 UTC
Vent 5 kt del Sud-Est
Visibilitat: 7000 m
Escasses núvols a una alçada de 3000 ft

TAF: VTUK 071100Z 0712/0812 14005KT 7000 FEW030

Observacions i pronòstics meteorològics de més de 4000 aeroports (METAR i TAF).

Les estacions disponibles són els punts grocs i vermells al mapa.

Posi el ratolí al punt desitjat per veure el nom de l'estació.

Feu clic per veure les observacions i els pronòstics meteorològics.

Per canviar el mapa: feu clic els botons verds amb una creu de color negre per apropar; al botó verd amb un guió per allunyar la imatge; o en les fletxes verdes per a mapes adjacents.


METAR-TAF: